Time;durP1;ratioP1;P1;durP2;ratioP2;P2;SDS_P1;SDS_P2;PMS_P1;PMS_P2;Temp;Humidity;BMP_temperature;BMP_pressure;BME280_temperature;BME280_humidity;BME280_pressure;Samples;Min_cycle;Max_cycle;Signal;HPM_P1;HPM_P2
2022/10/16 00:00:30;;;;;;;27.80;16.58;;;12.90;99.90;;;;;;5028977;28;20053;-56
2022/10/16 00:02:56;;;;;;;26.80;17.05;;;12.90;99.90;;;;;;5029200;28;20033;-60
2022/10/16 00:05:22;;;;;;;29.05;17.27;;;12.90;99.90;;;;;;5029273;28;20017;-59
2022/10/16 00:07:48;;;;;;;28.88;18.80;;;12.90;99.90;;;;;;5028977;28;20022;-58
2022/10/16 00:10:13;;;;;;;29.30;18.42;;;12.90;99.90;;;;;;5029178;28;20037;-58
2022/10/16 00:12:39;;;;;;;27.40;18.65;;;12.90;99.90;;;;;;5029060;28;20037;-59
2022/10/16 00:15:05;;;;;;;29.70;18.00;;;12.90;99.90;;;;;;5029009;28;20493;-58
2022/10/16 00:17:31;;;;;;;26.38;17.08;;;12.80;99.90;;;;;;5028806;28;20030;-59
2022/10/16 00:19:57;;;;;;;30.58;18.33;;;12.80;99.90;;;;;;5032192;28;20025;-58
2022/10/16 00:22:23;;;;;;;27.52;17.80;;;12.80;99.90;;;;;;5032929;28;20087;-58
2022/10/16 00:24:49;;;;;;;26.70;17.38;;;12.80;99.90;;;;;;5033024;28;20029;-58
2022/10/16 00:27:14;;;;;;;31.83;19.20;;;12.80;99.90;;;;;;5033020;28;20041;-57
2022/10/16 00:29:40;;;;;;;31.13;18.38;;;12.90;99.90;;;;;;5032857;28;20029;-54
2022/10/16 00:32:05;;;;;;;26.30;18.08;;;12.90;99.90;;;;;;5032613;28;20041;-56
2022/10/16 00:34:31;;;;;;;30.13;18.60;;;12.80;99.90;;;;;;5031260;28;20033;-59
2022/10/16 00:36:57;;;;;;;27.70;17.63;;;12.90;99.90;;;;;;5032891;28;20029;-59
2022/10/16 00:39:23;;;;;;;30.40;18.35;;;12.90;99.90;;;;;;5032695;28;20037;-59
2022/10/16 00:41:49;;;;;;;31.30;18.92;;;12.80;99.90;;;;;;5032741;28;20032;-60
2022/10/16 00:44:44;;;;;;;31.17;19.10;;;12.80;99.90;;;;;;5032561;28;20108;-59
2022/10/16 00:47:12;;;;;;;23.38;18.10;;;12.80;99.90;;;;;;5032557;28;20026;-55
2022/10/16 00:49:38;;;;;;;27.73;18.08;;;12.80;99.90;;;;;;5032408;28;20029;-60
2022/10/16 00:52:05;;;;;;;26.92;17.85;;;12.80;99.90;;;;;;5032546;28;20052;-60
2022/10/16 00:54:33;;;;;;;29.55;17.60;;;12.80;99.90;;;;;;5032305;28;20480;-55
2022/10/16 00:57:01;;;;;;;30.05;17.95;;;12.80;99.90;;;;;;5032379;28;20041;-60
2022/10/16 00:59:39;;;;;;;31.25;19.02;;;12.80;99.90;;;;;;5032131;28;20460;-55
2022/10/16 01:02:08;;;;;;;29.15;18.40;;;12.90;99.90;;;;;;5032220;28;20041;-56
2022/10/16 01:04:44;;;;;;;30.85;18.10;;;12.80;99.90;;;;;;5032121;28;20033;-60
2022/10/16 01:07:29;;;;;;;27.42;17.33;;;12.80;99.90;;;;;;5014209;28;20489;-58
2022/10/16 01:10:11;;;;;;;26.98;17.30;;;12.80;99.90;;;;;;5032387;28;20068;-60
2022/10/16 01:12:42;;;;;;;23.17;16.23;;;12.90;99.90;;;;;;5024398;28;20489;-61
2022/10/16 01:15:32;;;;;;;24.35;15.82;;;12.80;99.90;;;;;;5032089;28;20034;-58
2022/10/16 01:18:21;;;;;;;28.92;16.70;;;12.80;99.90;;;;;;5031957;28;20396;-56
2022/10/16 01:21:06;;;;;;;24.58;16.05;;;12.90;99.90;;;;;;5024461;28;20041;-58
2022/10/16 01:23:44;;;;;;;22.08;15.52;;;12.90;99.90;;;;;;5032097;28;20480;-58
2022/10/16 01:26:32;;;;;;;24.13;15.30;;;12.90;99.90;;;;;;5031900;28;20033;-58
2022/10/16 01:29:25;;;;;;;25.13;16.10;;;12.90;99.90;;;;;;5031688;28;20120;-59
2022/10/16 01:31:57;;;;;;;25.08;14.00;;;12.90;99.90;;;;;;5030538;28;20031;-59
2022/10/16 01:34:37;;;;;;;24.23;15.90;;;12.90;99.90;;;;;;5031785;28;20034;-58
2022/10/16 01:37:09;;;;;;;27.30;15.35;;;12.90;99.90;;;;;;5007958;28;20026;-59
2022/10/16 01:39:38;;;;;;;30.77;17.17;;;12.90;99.90;;;;;;5012027;28;20112;-61
2022/10/16 01:42:15;;;;;;;22.30;14.98;;;12.80;99.90;;;;;;5011632;28;20052;-56
2022/10/16 01:44:42;;;;;;;24.75;14.52;;;12.90;99.90;;;;;;5011967;28;20036;-57
2022/10/16 01:47:10;;;;;;;23.23;14.00;;;12.80;99.90;;;;;;5011533;28;20030;-59
2022/10/16 01:49:38;;;;;;;26.13;15.75;;;12.80;99.90;;;;;;5011463;28;20109;-58
2022/10/16 01:52:09;;;;;;;29.73;17.17;;;12.70;99.90;;;;;;5011596;28;20552;-57
2022/10/16 01:54:37;;;;;;;29.83;16.60;;;12.70;99.90;;;;;;5011463;28;20541;-58
2022/10/16 01:57:06;;;;;;;33.92;19.02;;;12.60;99.90;;;;;;5011340;28;20029;-60
2022/10/16 01:59:37;;;;;;;32.97;19.05;;;12.60;99.90;;;;;;5011453;28;20062;-55
2022/10/16 02:02:07;;;;;;;30.35;20.17;;;12.50;99.90;;;;;;5011162;28;20045;-58
2022/10/16 02:04:42;;;;;;;30.42;19.15;;;12.60;99.90;;;;;;4993624;28;20116;-57
2022/10/16 02:07:08;;;;;;;27.58;17.83;;;12.50;99.90;;;;;;5011335;28;20034;-59
2022/10/16 02:09:35;;;;;;;27.50;18.40;;;12.50;99.90;;;;;;5011220;28;20026;-59
2022/10/16 02:12:09;;;;;;;29.92;20.15;;;12.50;99.90;;;;;;5011213;28;20038;-59
2022/10/16 02:14:38;;;;;;;31.60;21.17;;;12.40;99.90;;;;;;5011407;28;20044;-60
2022/10/16 02:17:11;;;;;;;29.67;19.52;;;12.40;99.90;;;;;;5010928;28;20022;-59
2022/10/16 02:19:37;;;;;;;32.60;20.13;;;12.40;99.90;;;;;;5011315;28;20654;-56
2022/10/16 02:22:06;;;;;;;34.05;20.00;;;12.40;99.90;;;;;;5011001;28;20630;-58
2022/10/16 02:24:39;;;;;;;33.50;20.45;;;12.40;99.90;;;;;;5010927;28;20034;-61
2022/10/16 02:27:20;;;;;;;29.25;19.45;;;12.40;99.90;;;;;;5011038;28;20096;-58
2022/10/16 02:29:50;;;;;;;34.60;20.02;;;12.40;99.90;;;;;;5010912;28;20034;-60
2022/10/16 02:32:21;;;;;;;30.35;19.92;;;12.40;99.90;;;;;;5010686;28;20041;-61
2022/10/16 02:34:48;;;;;;;31.35;20.15;;;12.40;99.90;;;;;;5013330;28;20638;-59
2022/10/16 02:37:15;;;;;;;36.03;19.17;;;12.40;99.90;;;;;;5012407;28;20508;-56
2022/10/16 02:39:41;;;;;;;35.45;19.83;;;12.40;99.90;;;;;;5030634;28;20030;-57
2022/10/16 02:42:14;;;;;;;31.50;19.20;;;12.40;99.90;;;;;;5030227;28;20025;-59
2022/10/16 02:44:39;;;;;;;34.42;20.60;;;12.40;99.90;;;;;;5030522;28;20037;-56
2022/10/16 02:47:06;;;;;;;35.10;20.30;;;12.40;99.90;;;;;;5030296;28;20032;-56
2022/10/16 02:49:31;;;;;;;27.55;18.35;;;12.40;99.90;;;;;;5029989;28;20570;-56
2022/10/16 02:51:57;;;;;;;30.00;18.63;;;12.40;99.90;;;;;;5030168;28;20044;-56
2022/10/16 02:54:23;;;;;;;31.23;18.25;;;12.40;99.90;;;;;;5030027;28;20029;-56
2022/10/16 02:56:49;;;;;;;28.92;18.40;;;12.40;99.90;;;;;;5030294;28;20036;-56
2022/10/16 02:59:15;;;;;;;36.08;19.48;;;12.40;99.90;;;;;;5030060;28;20029;-60
2022/10/16 03:01:40;;;;;;;28.73;17.70;;;12.40;99.90;;;;;;5029843;28;20621;-60
2022/10/16 03:04:06;;;;;;;30.23;18.38;;;12.40;99.90;;;;;;5028143;28;20025;-59
2022/10/16 03:06:31;;;;;;;30.75;17.58;;;12.50;99.90;;;;;;5027711;28;20472;-59
2022/10/16 03:08:57;;;;;;;26.73;17.80;;;12.50;99.90;;;;;;5037721;28;20025;-56
2022/10/16 03:11:23;;;;;;;30.45;18.10;;;12.50;99.90;;;;;;5029825;28;20123;-56
2022/10/16 03:13:48;;;;;;;31.83;18.80;;;12.50;99.90;;;;;;5048705;28;20024;-56
2022/10/16 03:16:14;;;;;;;26.17;17.25;;;12.50;99.90;;;;;;5049820;28;20108;-60
2022/10/16 03:18:39;;;;;;;29.00;18.65;;;12.50;99.90;;;;;;5049351;28;20543;-60
2022/10/16 03:21:05;;;;;;;31.08;18.40;;;12.60;99.90;;;;;;5049154;28;20480;-59
2022/10/16 03:23:31;;;;;;;28.73;16.75;;;12.60;99.90;;;;;;5049560;28;20119;-56
2022/10/16 03:25:56;;;;;;;31.83;17.95;;;12.70;99.90;;;;;;5032988;28;20542;-56
2022/10/16 03:28:22;;;;;;;26.80;17.02;;;12.70;99.90;;;;;;5029498;28;20129;-58
2022/10/16 03:30:48;;;;;;;27.30;15.43;;;12.60;99.90;;;;;;5029507;28;20022;-60
2022/10/16 03:33:13;;;;;;;31.17;16.38;;;12.60;99.90;;;;;;5029310;28;20037;-59
2022/10/16 03:35:39;;;;;;;22.60;14.88;;;12.50;99.90;;;;;;5029063;28;20467;-60
2022/10/16 03:38:04;;;;;;;25.10;16.38;;;12.40;99.90;;;;;;5029443;28;20039;-56
2022/10/16 03:40:32;;;;;;;31.80;18.08;;;12.30;99.90;;;;;;5029376;28;20030;-56
2022/10/16 03:42:58;;;;;;;26.02;16.42;;;12.30;99.90;;;;;;5029165;28;20492;-61
2022/10/16 03:45:24;;;;;;;30.85;17.77;;;12.30;99.90;;;;;;5029137;28;20501;-59
2022/10/16 03:47:49;;;;;;;25.92;17.50;;;12.40;99.90;;;;;;5029036;28;20083;-57
2022/10/16 03:50:15;;;;;;;29.13;17.85;;;12.40;99.90;;;;;;5029091;28;20669;-60
2022/10/16 03:52:41;;;;;;;26.77;17.20;;;12.40;99.90;;;;;;5028823;28;20033;-59
2022/10/16 03:55:07;;;;;;;30.38;17.73;;;12.50;99.90;;;;;;5028580;28;20428;-60
2022/10/16 03:57:33;;;;;;;29.02;16.67;;;12.50;99.90;;;;;;5029236;28;20033;-59
2022/10/16 03:59:59;;;;;;;28.90;17.00;;;12.50;99.90;;;;;;5028880;28;20036;-60
2022/10/16 04:02:25;;;;;;;28.48;17.33;;;12.50;99.90;;;;;;5039489;28;20060;-59
2022/10/16 04:04:50;;;;;;;32.63;18.60;;;12.50;99.90;;;;;;5048867;28;20539;-59
2022/10/16 04:07:16;;;;;;;36.42;17.55;;;12.50;99.90;;;;;;5048783;28;20079;-57
2022/10/16 04:09:42;;;;;;;35.38;17.40;;;12.60;99.90;;;;;;5048797;28;20423;-58
2022/10/16 04:12:07;;;;;;;27.67;17.63;;;12.60;99.90;;;;;;5048753;28;20091;-55
2022/10/16 04:14:33;;;;;;;26.65;17.60;;;12.60;99.90;;;;;;5048668;28;20021;-54
2022/10/16 04:16:59;;;;;;;25.95;16.48;;;12.70;99.90;;;;;;5048352;28;20036;-54
2022/10/16 04:19:25;;;;;;;26.77;17.60;;;12.70;99.90;;;;;;5048735;28;20400;-53
2022/10/16 04:21:50;;;;;;;30.13;18.05;;;12.60;99.90;;;;;;5048589;28;20021;-58
2022/10/16 04:24:16;;;;;;;33.70;18.10;;;12.60;99.90;;;;;;5048777;28;20036;-56
2022/10/16 04:26:41;;;;;;;26.42;16.52;;;12.60;99.90;;;;;;5048085;28;20075;-57
2022/10/16 04:29:07;;;;;;;28.52;17.02;;;12.50;99.90;;;;;;5047169;28;20021;-55
2022/10/16 04:31:33;;;;;;;25.60;17.63;;;12.60;99.90;;;;;;5048340;28;20063;-53
2022/10/16 04:33:59;;;;;;;26.13;17.02;;;12.60;99.90;;;;;;5048223;28;20782;-53
2022/10/16 04:36:24;;;;;;;25.98;16.83;;;12.70;99.90;;;;;;5048646;28;20024;-54
2022/10/16 04:38:50;;;;;;;25.60;15.32;;;12.70;99.90;;;;;;5048806;28;20389;-54
2022/10/16 04:41:16;;;;;;;28.13;17.08;;;12.70;99.90;;;;;;5048300;28;20676;-57
2022/10/16 04:43:41;;;;;;;30.83;17.75;;;12.70;99.90;;;;;;5048291;28;20028;-57
2022/10/16 04:46:07;;;;;;;26.42;16.25;;;12.60;99.90;;;;;;5048417;28;20017;-57
2022/10/16 04:48:32;;;;;;;26.98;16.70;;;12.50;99.90;;;;;;5048466;28;20025;-55
2022/10/16 04:50:58;;;;;;;26.30;16.02;;;12.50;99.90;;;;;;5048239;28;20037;-55
2022/10/16 04:53:24;;;;;;;26.85;17.10;;;12.40;99.90;;;;;;5028337;28;20033;-54
2022/10/16 04:55:50;;;;;;;28.10;16.45;;;12.40;99.90;;;;;;5028330;28;20481;-55
2022/10/16 04:58:17;;;;;;;32.25;17.02;;;12.40;99.90;;;;;;5028412;28;20033;-55
2022/10/16 05:00:44;;;;;;;29.60;16.50;;;12.40;99.90;;;;;;5028226;28;20038;-57
2022/10/16 05:03:10;;;;;;;28.17;16.52;;;12.40;99.90;;;;;;5045257;28;20037;-56
2022/10/16 05:05:36;;;;;;;28.77;15.82;;;12.40;99.90;;;;;;5050650;28;20039;-54
2022/10/16 05:08:02;;;;;;;20.50;13.82;;;12.40;99.90;;;;;;5052051;28;20112;-56
2022/10/16 05:10:28;;;;;;;23.40;14.02;;;12.40;99.90;;;;;;5051937;28;20108;-57
2022/10/16 05:12:54;;;;;;;28.23;15.07;;;12.40;99.90;;;;;;5051977;28;20037;-56
2022/10/16 05:15:19;;;;;;;24.77;15.68;;;12.30;99.90;;;;;;5051909;28;20021;-54
2022/10/16 05:17:45;;;;;;;25.13;16.88;;;12.30;99.90;;;;;;5051823;28;20499;-53
2022/10/16 05:20:11;;;;;;;25.08;14.90;;;12.20;99.90;;;;;;5051720;28;20512;-55
2022/10/16 05:22:37;;;;;;;23.95;14.18;;;12.20;99.90;;;;;;5051654;28;20017;-54
2022/10/16 05:25:04;;;;;;;24.33;15.80;;;12.20;99.90;;;;;;5051724;28;20035;-54
2022/10/16 05:27:29;;;;;;;26.15;16.17;;;12.10;99.90;;;;;;5051381;28;20387;-56
2022/10/16 05:29:55;;;;;;;26.13;16.25;;;12.10;99.90;;;;;;5051701;28;20547;-54
2022/10/16 05:32:20;;;;;;;34.40;16.55;;;12.00;99.90;;;;;;5051845;28;20365;-53
2022/10/16 05:34:46;;;;;;;26.00;16.08;;;12.00;99.90;;;;;;5051547;28;20033;-56
2022/10/16 05:37:12;;;;;;;24.73;16.30;;;12.00;99.90;;;;;;5051567;28;20368;-58
2022/10/16 05:39:38;;;;;;;27.50;15.73;;;12.00;99.90;;;;;;5051301;28;20056;-58
2022/10/16 05:42:05;;;;;;;30.08;15.70;;;12.00;99.90;;;;;;5051263;28;20086;-55
2022/10/16 05:44:31;;;;;;;26.15;17.45;;;12.00;99.90;;;;;;5051030;28;20385;-54
2022/10/16 05:46:57;;;;;;;30.73;17.85;;;12.00;99.90;;;;;;5051134;28;20082;-57
2022/10/16 05:49:22;;;;;;;32.22;18.00;;;12.00;99.90;;;;;;5051388;28;20484;-55
2022/10/16 05:51:48;;;;;;;30.67;18.25;;;12.00;99.90;;;;;;5050864;28;20917;-54
2022/10/16 05:54:14;;;;;;;30.48;17.52;;;12.00;99.90;;;;;;5051111;28;20055;-56
2022/10/16 05:56:40;;;;;;;30.15;18.00;;;12.00;99.90;;;;;;5051131;28;20480;-56
2022/10/16 05:59:06;;;;;;;23.10;15.45;;;12.00;99.90;;;;;;5050982;28;20036;-58
2022/10/16 06:01:32;;;;;;;34.65;19.13;;;12.00;99.90;;;;;;5042871;28;20497;-60
2022/10/16 06:03:58;;;;;;;34.88;18.83;;;12.00;99.90;;;;;;5030754;28;20399;-55
2022/10/16 06:06:28;;;;;;;30.85;20.15;;;12.00;99.90;;;;;;5030982;28;20151;-57
2022/10/16 06:08:55;;;;;;;37.90;20.42;;;12.10;99.90;;;;;;5030930;28;20033;-55
2022/10/16 06:11:26;;;;;;;31.75;20.52;;;12.10;99.90;;;;;;5013044;28;20034;-55
2022/10/16 06:13:54;;;;;;;39.33;24.92;;;12.10;99.90;;;;;;5030814;28;20025;-58
2022/10/16 06:16:20;;;;;;;45.05;25.85;;;12.10;99.90;;;;;;5029972;28;20030;-57
2022/10/16 06:18:47;;;;;;;33.85;24.10;;;12.20;99.90;;;;;;5030850;28;20025;-60
2022/10/16 06:21:17;;;;;;;38.55;22.23;;;12.30;99.90;;;;;;5030776;28;20037;-57
2022/10/16 06:23:42;;;;;;;35.25;22.55;;;12.30;99.90;;;;;;5030386;28;20053;-57
2022/10/16 06:26:11;;;;;;;38.55;23.27;;;12.40;99.90;;;;;;5030553;28;20017;-58
2022/10/16 06:28:38;;;;;;;38.88;24.15;;;12.40;99.90;;;;;;5030370;28;20033;-60
2022/10/16 06:31:05;;;;;;;47.43;25.77;;;12.50;99.90;;;;;;5030366;28;20471;-57
2022/10/16 06:33:31;;;;;;;39.50;24.15;;;12.60;99.90;;;;;;5030541;28;20037;-60
2022/10/16 06:36:02;;;;;;;39.55;22.90;;;12.70;99.90;;;;;;5030224;28;20370;-60
2022/10/16 06:38:28;;;;;;;36.28;23.17;;;12.90;99.90;;;;;;5030313;28;20033;-61
2022/10/16 06:40:54;;;;;;;33.90;21.63;;;13.00;99.90;;;;;;5030206;28;20515;-59
2022/10/16 06:43:19;;;;;;;40.47;20.40;;;13.10;99.90;;;;;;5030286;28;20108;-59
2022/10/16 06:45:56;;;;;;;29.27;18.50;;;13.20;99.90;;;;;;5030348;28;20056;-56
2022/10/16 06:48:22;;;;;;;36.10;19.40;;;13.30;99.90;;;;;;5030403;28;20025;-59
2022/10/16 06:50:59;;;;;;;37.30;20.43;;;13.40;99.90;;;;;;5029849;28;20025;-57
2022/10/16 06:53:28;;;;;;;31.73;19.25;;;13.60;99.90;;;;;;5029970;28;20307;-57
2022/10/16 06:55:54;;;;;;;32.00;18.13;;;13.70;99.90;;;;;;5029928;28;20029;-59
2022/10/16 06:58:20;;;;;;;32.97;19.02;;;13.80;99.90;;;;;;5048419;28;20044;-57
2022/10/16 07:00:46;;;;;;;29.35;18.77;;;14.00;99.90;;;;;;5049884;28;20341;-57
2022/10/16 07:03:12;;;;;;;31.05;17.50;;;14.00;99.90;;;;;;5031373;28;20059;-59
2022/10/16 07:05:39;;;;;;;33.17;18.23;;;14.20;99.90;;;;;;5029964;28;20041;-60
2022/10/16 07:08:05;;;;;;;32.22;18.17;;;14.30;99.90;;;;;;5029600;28;20029;-59
2022/10/16 07:10:31;;;;;;;28.25;17.65;;;14.50;99.90;;;;;;5030023;28;20025;-56
2022/10/16 07:12:57;;;;;;;29.75;18.30;;;14.60;99.90;;;;;;5026814;28;20095;-56
2022/10/16 07:15:23;;;;;;;29.23;17.38;;;14.80;99.90;;;;;;5028318;28;20030;-56
2022/10/16 07:17:48;;;;;;;30.00;16.50;;;15.00;99.90;;;;;;5029698;28;20030;-54
2022/10/16 07:20:14;;;;;;;22.58;14.02;;;15.10;99.90;;;;;;5028458;28;20025;-56
2022/10/16 07:22:39;;;;;;;23.40;14.00;;;15.10;99.90;;;;;;5028776;28;20412;-57
2022/10/16 07:25:06;;;;;;;24.65;13.88;;;15.00;99.90;;;;;;5029367;28;20412;-57
2022/10/16 07:27:31;;;;;;;25.02;13.13;;;15.10;99.90;;;;;;5028931;28;20437;-57
2022/10/16 07:29:57;;;;;;;19.50;12.40;;;15.20;99.90;;;;;;5027803;28;20112;-57
2022/10/16 07:32:23;;;;;;;23.23;12.88;;;15.20;99.90;;;;;;5028322;28;20045;-59
2022/10/16 07:34:49;;;;;;;19.23;11.68;;;15.30;99.90;;;;;;5027879;28;20021;-59
2022/10/16 07:37:14;;;;;;;17.35;11.25;;;15.40;99.90;;;;;;5027436;28;20035;-57
2022/10/16 07:39:40;;;;;;;17.52;12.02;;;15.40;99.90;;;;;;5023397;28;20065;-56
2022/10/16 07:42:07;;;;;;;21.02;13.20;;;15.60;99.90;;;;;;5030496;28;20029;-56
2022/10/16 07:44:33;;;;;;;17.58;11.27;;;15.80;99.90;;;;;;5029600;28;20060;-58
2022/10/16 07:46:58;;;;;;;20.42;12.50;;;15.90;99.90;;;;;;5027319;28;20477;-57
2022/10/16 07:49:24;;;;;;;21.90;13.13;;;15.70;99.90;;;;;;5027774;28;20496;-56
2022/10/16 07:51:50;;;;;;;23.45;14.20;;;15.80;99.90;;;;;;5027280;28;20732;-55
2022/10/16 07:54:15;;;;;;;20.45;12.98;;;15.80;99.90;;;;;;5004461;28;20033;-56
2022/10/16 07:56:41;;;;;;;18.20;12.10;;;15.70;99.90;;;;;;5027337;28;20045;-59
2022/10/16 07:59:07;;;;;;;27.55;12.98;;;15.60;99.90;;;;;;5027491;28;20473;-57
2022/10/16 08:01:32;;;;;;;20.42;13.30;;;15.70;99.90;;;;;;5027330;28;20473;-56
2022/10/16 08:03:58;;;;;;;21.33;12.52;;;15.70;99.90;;;;;;5027616;28;20029;-58
2022/10/16 08:06:24;;;;;;;22.90;12.52;;;15.80;99.90;;;;;;5027345;28;20033;-57
2022/10/16 08:08:49;;;;;;;20.20;13.13;;;15.80;99.90;;;;;;5027585;28;20033;-54
2022/10/16 08:11:15;;;;;;;19.45;13.23;;;15.80;99.90;;;;;;5027281;28;20033;-56
2022/10/16 08:13:41;;;;;;;17.55;11.85;;;15.80;99.90;;;;;;5027270;28;20048;-56
2022/10/16 08:16:10;;;;;;;20.00;12.07;;;15.80;99.90;;;;;;5027313;28;20021;-54
2022/10/16 08:18:37;;;;;;;19.65;12.32;;;15.80;99.90;;;;;;5009255;28;20048;-57
2022/10/16 08:21:04;;;;;;;;;;;15.90;99.90;;;;;;5031738;28;20108;-56
2022/10/16 08:23:30;;;;;;;20.50;11.38;;;15.90;99.90;;;;;;5048322;28;19909;-56
2022/10/16 08:26:01;;;;;;;17.55;11.10;;;16.00;99.90;;;;;;5048224;28;20042;-56
2022/10/16 08:28:27;;;;;;;18.88;11.45;;;16.00;99.90;;;;;;5044290;28;20022;-57
2022/10/16 08:30:53;;;;;;;24.70;12.75;;;16.60;99.90;;;;;;5027648;28;20029;-57
2022/10/16 08:33:18;;;;;;;18.98;11.43;;;16.70;99.90;;;;;;5027375;28;20435;-57
2022/10/16 08:35:51;;;;;;;16.15;10.68;;;16.60;99.90;;;;;;5028324;28;20030;-56
2022/10/16 08:38:16;;;;;;;17.33;10.70;;;16.40;99.90;;;;;;5027264;28;20105;-57
2022/10/16 08:40:42;;;;;;;23.77;11.00;;;16.40;99.90;;;;;;5029650;28;20033;-58
2022/10/16 08:43:40;;;;;;;23.73;11.77;;;16.50;99.90;;;;;;5031618;28;20097;-59
2022/10/16 08:46:21;;;;;;;17.27;10.13;;;16.60;99.90;;;;;;5029782;28;20027;-56
2022/10/16 08:48:53;;;;;;;19.67;10.95;;;16.60;99.90;;;;;;5030735;28;20033;-55
2022/10/16 08:51:37;;;;;;;17.70;10.63;;;16.80;99.90;;;;;;5029421;28;20048;-57
2022/10/16 08:54:28;;;;;;;19.73;11.43;;;16.70;99.90;;;;;;5029718;28;20346;-57
2022/10/16 08:57:04;;;;;;;17.58;10.13;;;16.80;99.90;;;;;;5029858;28;20026;-54
2022/10/16 08:59:30;;;;;;;15.98;10.73;;;16.80;99.90;;;;;;5030533;28;20103;-57
2022/10/16 09:01:55;;;;;;;19.33;11.52;;;16.80;99.90;;;;;;5030431;28;20496;-57
2022/10/16 09:04:50;;;;;;;16.88;11.57;;;16.90;99.90;;;;;;5030780;28;20013;-55
2022/10/16 09:07:40;;;;;;;14.48;10.10;;;17.00;99.90;;;;;;5031710;28;20061;-56
2022/10/16 09:10:19;;;;;;;17.30;11.27;;;17.10;99.90;;;;;;5012250;28;20120;-56
2022/10/16 09:13:13;;;;;;;14.98;10.27;;;17.60;99.90;;;;;;5006098;28;20489;-56
2022/10/16 09:16:00;;;;;;;20.75;11.93;;;18.30;99.90;;;;;;5010481;28;20894;-56
2022/10/16 09:18:47;;;;;;;20.00;10.90;;;18.30;99.90;;;;;;5012320;28;20394;-54
2022/10/16 09:21:18;;;;;;;16.02;10.82;;;18.70;99.90;;;;;;5016242;28;20053;-57
2022/10/16 09:23:44;;;;;;;16.40;10.23;;;18.50;99.90;;;;;;5051971;28;20096;-58
2022/10/16 09:26:12;;;;;;;16.33;9.98;;;18.50;99.90;;;;;;5050886;28;20659;-57
2022/10/16 09:28:38;;;;;;;15.88;10.15;;;18.70;99.90;;;;;;5051148;28;20025;-56
2022/10/16 09:31:04;;;;;;;15.88;9.85;;;19.40;99.90;;;;;;5051371;28;20041;-56
2022/10/16 09:33:37;;;;;;;13.45;8.65;;;19.00;99.90;;;;;;5050367;28;20028;-55
2022/10/16 09:36:05;;;;;;;17.50;9.70;;;18.90;99.90;;;;;;5050052;28;20055;-56
2022/10/16 09:38:35;;;;;;;15.82;9.55;;;19.10;99.90;;;;;;5049544;28;20074;-58
2022/10/16 09:41:12;;;;;;;14.50;9.73;;;19.00;99.90;;;;;;5049911;28;20032;-55
2022/10/16 09:43:46;;;;;;;15.23;9.63;;;19.10;99.90;;;;;;5050020;28;20549;-57
2022/10/16 09:46:29;;;;;;;15.15;9.50;;;18.80;99.90;;;;;;5032275;28;20385;-56
2022/10/16 09:48:59;;;;;;;17.50;9.70;;;18.70;99.90;;;;;;5030534;28;20021;-58
2022/10/16 09:51:31;;;;;;;16.42;9.93;;;18.60;99.90;;;;;;5030241;28;20401;-55
2022/10/16 09:54:06;;;;;;;19.20;10.63;;;18.60;99.90;;;;;;5030361;28;20029;-57
2022/10/16 09:56:39;;;;;;;17.67;10.25;;;18.50;99.90;;;;;;5029756;28;20156;-58
2022/10/16 09:59:16;;;;;;;16.05;9.32;;;18.50;99.90;;;;;;5030670;28;20026;-59
2022/10/16 10:01:52;;;;;;;15.15;9.63;;;18.70;99.90;;;;;;5023569;28;20076;-56
2022/10/16 10:04:20;;;;;;;13.57;8.98;;;18.80;99.90;;;;;;5026773;28;20030;-55
2022/10/16 10:06:51;;;;;;;14.27;9.50;;;18.80;99.90;;;;;;5028288;28;20616;-57
2022/10/16 10:09:34;;;;;;;12.90;8.82;;;18.80;99.90;;;;;;5028318;28;20022;-57
2022/10/16 10:12:05;;;;;;;14.07;9.45;;;18.90;99.90;;;;;;5027922;28;20084;-56
2022/10/16 10:14:40;;;;;;;15.05;8.93;;;18.80;99.90;;;;;;5010428;28;20636;-57
2022/10/16 10:17:06;;;;;;;15.20;8.75;;;18.90;99.90;;;;;;5027010;28;20029;-57
2022/10/16 10:19:38;;;;;;;17.05;9.73;;;18.90;99.90;;;;;;5027954;28;20028;-54
2022/10/16 10:22:26;;;;;;;19.50;9.13;;;18.90;99.90;;;;;;5027281;28;20097;-55
2022/10/16 10:24:55;;;;;;;15.85;8.60;;;19.00;99.90;;;;;;5026139;28;20032;-54
2022/10/16 10:27:44;;;;;;;12.48;8.63;;;19.10;99.90;;;;;;5026249;28;20030;-54
2022/10/16 10:30:40;;;;;;;16.17;8.88;;;19.00;99.90;;;;;;5027201;28;20424;-54
2022/10/16 10:33:17;;;;;;;21.20;9.82;;;18.90;99.90;;;;;;5027094;28;20732;-54
2022/10/16 10:35:51;;;;;;;13.40;9.35;;;18.70;99.90;;;;;;5026565;28;20021;-56
2022/10/16 10:38:41;;;;;;;16.33;9.52;;;18.70;99.90;;;;;;5009802;28;20381;-54
2022/10/16 10:41:27;;;;;;;18.05;10.50;;;18.50;99.90;;;;;;5026776;28;20024;-56
2022/10/16 10:44:12;;;;;;;17.80;10.93;;;18.50;99.90;;;;;;5027147;28;20129;-56
2022/10/16 10:47:20;;;;;;;17.40;10.63;;;18.40;99.90;;;;;;5027624;28;20060;-54
2022/10/16 10:49:48;;;;;;;14.70;10.45;;;18.50;99.90;;;;;;5011015;28;20116;-56
2022/10/16 10:52:38;;;;;;;14.45;9.45;;;18.50;99.90;;;;;;5034557;28;20029;-58
2022/10/16 10:55:19;;;;;;;16.55;9.95;;;18.60;99.90;;;;;;5026488;28;20633;-57
2022/10/16 10:57:53;;;;;;;13.45;9.90;;;18.60;99.90;;;;;;5023746;28;20087;-57
2022/10/16 11:00:42;;;;;;;17.38;10.00;;;18.70;99.90;;;;;;5029254;28;20025;-55
2022/10/16 11:03:47;;;;;;;17.20;10.30;;;18.70;99.90;;;;;;5028585;28;20040;-56
2022/10/16 11:06:39;;;;;;;19.27;9.93;;;18.80;99.90;;;;;;5029677;28;20867;-57
2022/10/16 11:09:17;;;;;;;17.15;10.27;;;18.90;99.90;;;;;;5028230;28;20562;-54
2022/10/16 11:12:02;;;;;;;15.32;9.90;;;18.90;99.90;;;;;;5024678;28;20438;-57
2022/10/16 11:14:45;;;;;;;69.00;51.13;;;18.80;99.90;;;;;;5028042;28;20099;-57
2022/10/16 11:17:16;;;;;;;16.77;11.05;;;18.80;99.90;;;;;;5028913;28;20492;-58
2022/10/16 11:20:19;;;;;;;22.50;12.35;;;18.80;99.90;;;;;;5029245;28;20033;-57
2022/10/16 11:22:52;;;;;;;18.85;11.68;;;18.80;99.90;;;;;;5028165;28;20026;-56
2022/10/16 11:25:23;;;;;;;21.10;12.77;;;18.80;99.90;;;;;;5025988;28;20032;-57
2022/10/16 11:27:56;;;;;;;21.92;12.32;;;18.80;99.90;;;;;;5028952;28;20056;-55
2022/10/16 11:30:28;;;;;;;23.00;12.27;;;18.80;99.90;;;;;;5029059;28;20032;-55
2022/10/16 11:33:10;;;;;;;18.85;11.57;;;18.80;99.90;;;;;;5026276;28;20030;-55
2022/10/16 11:35:42;;;;;;;19.45;12.18;;;18.70;99.90;;;;;;5009698;28;20030;-58
2022/10/16 11:38:20;;;;;;;23.02;12.82;;;18.80;99.90;;;;;;5010067;28;20049;-55
2022/10/16 11:40:49;;;;;;;18.95;11.85;;;18.70;99.90;;;;;;5028329;28;20043;-56
2022/10/16 11:43:40;;;;;;;23.08;11.68;;;18.80;99.90;;;;;;5029386;28;20029;-55
2022/10/16 11:46:15;;;;;;;25.60;12.15;;;18.90;99.90;;;;;;5029272;28;20033;-56
2022/10/16 11:49:11;;;;;;;21.55;11.73;;;19.10;99.90;;;;;;5027142;28;20033;-58
2022/10/16 11:51:45;;;;;;;17.73;11.63;;;19.30;99.90;;;;;;5027860;28;20056;-55
2022/10/16 11:54:40;;;;;;;18.80;10.48;;;19.30;99.90;;;;;;5043814;28;20025;-54
2022/10/16 11:57:16;;;;;;;15.65;10.68;;;19.30;99.90;;;;;;5035749;28;20065;-55
2022/10/16 12:00:01;;;;;;;17.35;11.23;;;19.20;99.90;;;;;;5009982;28;20025;-59
2022/10/16 12:02:30;;;;;;;22.30;11.02;;;19.30;99.90;;;;;;5027774;28;20077;-57
2022/10/16 12:05:15;;;;;;;16.85;9.85;;;19.30;99.90;;;;;;5028454;28;20028;-57
2022/10/16 12:08:13;;;;;;;15.02;10.20;;;19.50;99.90;;;;;;5008254;28;20030;-58
2022/10/16 12:10:42;;;;;;;19.40;9.55;;;20.00;99.90;;;;;;5013431;28;20041;-57
2022/10/16 12:13:31;;;;;;;16.55;9.90;;;20.60;99.90;;;;;;5028879;28;20069;-55
2022/10/16 12:16:12;;;;;;;13.63;9.55;;;21.20;99.90;;;;;;5027343;28;20083;-56
2022/10/16 12:18:45;;;;;;;19.08;10.07;;;21.40;99.90;;;;;;5019264;28;20029;-55
2022/10/16 12:21:15;;;;;;;15.88;9.13;;;21.10;99.90;;;;;;5023237;28;20711;-56
2022/10/16 12:23:56;;;;;;;14.70;9.88;;;20.40;99.90;;;;;;5027567;28;20120;-55
2022/10/16 12:26:31;;;;;;;18.33;10.60;;;20.40;99.90;;;;;;5018522;28;20434;-57
2022/10/16 12:29:11;;;;;;;15.00;9.85;;;20.30;99.90;;;;;;5048324;28;20033;-57
2022/10/16 12:31:43;;;;;;;14.38;8.98;;;20.40;99.90;;;;;;5027084;28;20063;-57
2022/10/16 12:34:32;;;;;;;18.65;9.57;;;20.20;99.90;;;;;;5010847;28;20502;-57
2022/10/16 12:37:11;;;;;;;14.57;9.43;;;20.10;99.90;;;;;;5028991;28;20108;-57
2022/10/16 12:39:37;;;;;;;17.33;10.25;;;20.10;99.90;;;;;;5028804;28;20052;-58
2022/10/16 12:42:22;;;;;;;15.85;9.70;;;20.00;99.90;;;;;;5028151;28;20095;-57
2022/10/16 12:44:48;;;;;;;14.35;10.00;;;20.00;99.90;;;;;;5028585;28;20396;-57
2022/10/16 12:47:24;;;;;;;15.77;8.73;;;19.90;99.90;;;;;;5028567;28;20021;-57